Page Field
KFMY : rendu visible

Aérodrome :











RETROUVEZ-NOUS SUR...

 
LOGIN :

S'inscrire | Disclaimer

   EN    FR    IT 

 









Légende :    VFR   VFR Marginal   IFR   IFR Intensif   IFR Très Intensif
Visi : 
Plafond : 
>= 8 km
>= 3000ft
5 à 8 km
1000 à 3000 ft
1500m à 5 km
500 à 1000 ft
800 à 1500m
200 à 500 ft
< 800m
< 200 ft
Symboles :   Orages  Brouillard  Fortes neiges  Fortes précipitations  Vent > 20 kt






- Altitude de l'aérodrome : 17 ft


KFMY - Page Field

DERNIER METAR :
  • 120953Z AUTO 00000KT 10SM CLR 18/16 A2995 RMK AO2 RAB34E43 SLP144 P0000 T01830161 $

METARs EXPIRÉS :
  • 120853Z AUTO 00000KT 10SM CLR 18/16 A2995 RMK AO2 RAE13 SLP145 P0000 60000 T01830161 56013 $
  • 120753Z AUTO 00000KT 10SM -RA CLR 18/16 A2996 RMK AO2 RAB13 SLP148 P0000 T01830161 $

TAF KFMY
Valide du 12 à 06h jusqu'au 13 à 06h UTC


120530Z 1206/1306 VRB03KT P6SM FEW060 SCT200
FM121900 26004KT P6SM FEW030 SCT200
FM130000 31005KT P6SM SCT030 BKN200
FM130500 35007KT P6SM SCT015 BKN030



MET'MAP, la Météo Aéronautique d'un coup d'oeil ! - Copyright ORBIFLY Décembre 2007 - Disclaimer

ORBIFLY MET'MAP TEAM :

Programmation & Développement : Alexandra Zaïnal
Conception & Développement : Baudouin d'Aumeries
Co-Programmation & Développement : Marc-Olivier Méhu
Soutien technique & logistique : Manuel Goepfert

Contact : metmap@orbifly.com




SOURCES & CREDITS :

   NOAA       Earth
Advisory